Time;durP1;ratioP1;P1;durP2;ratioP2;P2;SDS_P1;SDS_P2;PMS_P1;PMS_P2;Temp;Humidity;BMP_temperature;BMP_pressure;BME280_temperature;BME280_humidity;BME280_pressure;Samples;Min_cycle;Max_cycle;Signal;HPM_P1;HPM_P2
2022/05/03 00:00:32;;;;;;;60.30;56.55;;;;;;;9.28;100.00;101055.53;5024296;28;20119;-87
2022/05/03 00:03:16;;;;;;;50.60;47.47;;;;;;;9.22;100.00;101060.78;5016706;28;20057;-85
2022/05/03 00:05:57;;;;;;;51.38;47.97;;;;;;;9.08;100.00;101068.59;5022028;28;20051;-84
2022/05/03 00:08:38;;;;;;;48.42;45.03;;;;;;;9.50;100.00;101056.38;5017501;28;20549;-85
2022/05/03 00:11:10;;;;;;;61.40;57.45;;;;;;;9.38;100.00;101057.91;5020846;28;20124;-83
2022/05/03 00:13:49;;;;;;;62.47;58.58;;;;;;;8.98;100.00;101062.75;5026876;28;20462;-83
2022/05/03 00:16:21;;;;;;;43.80;40.67;;;;;;;8.27;100.00;101052.69;5027807;28;20060;-84
2022/05/03 00:18:54;;;;;;;50.80;46.97;;;;;;;8.48;100.00;101053.81;5033086;28;20162;-83
2022/05/03 00:21:27;;;;;;;48.78;45.13;;;;;;;8.60;100.00;101057.66;5024389;28;20128;-83
2022/05/03 00:23:56;;;;;;;47.58;44.47;;;;;;;8.65;100.00;101065.03;5021380;28;20121;-84
2022/05/03 00:26:27;;;;;;;46.03;42.50;;;;;;;8.70;100.00;101063.47;5022220;28;20081;-85
2022/05/03 00:28:56;;;;;;;43.87;40.63;;;;;;;8.52;100.00;101052.44;5024995;28;20049;-83
2022/05/03 00:31:26;;;;;;;46.80;43.10;;;;;;;8.20;100.00;101058.88;5025812;28;20458;-84
2022/05/03 00:34:02;;;;;;;45.10;41.75;;;;;;;8.48;100.00;101056.47;5026393;28;20045;-85
2022/05/03 00:36:31;;;;;;;43.58;40.35;;;;;;;8.13;100.00;101058.78;5027114;28;20130;-84
2022/05/03 00:39:00;;;;;;;42.22;39.17;;;;;;;8.35;100.00;101059.72;5020308;28;20042;-84
2022/05/03 00:41:43;;;;;;;47.78;44.67;;;;;;;8.79;100.00;101060.72;5022692;28;20049;-83
2022/05/03 00:47:16;;;;;;;45.28;42.08;;;;;;;8.86;100.00;101058.97;5023764;28;20497;-84
2022/05/03 00:50:00;;;;;;;45.88;42.67;;;;;;;8.97;100.00;101055.84;5026356;28;20457;-85
2022/05/03 00:52:35;;;;;;;49.47;45.88;;;;;;;8.93;100.00;101057.22;5025575;28;20042;-86
2022/05/03 00:55:23;;;;;;;46.47;43.17;;;;;;;8.99;100.00;101056.47;5025388;28;20046;-85
2022/05/03 00:58:04;;;;;;;51.97;48.28;;;;;;;9.09;100.00;101051.69;5020351;28;20050;-85
2022/05/03 01:00:36;;;;;;;52.38;48.58;;;;;;;8.84;100.00;101047.75;5021796;28;20117;-85
2022/05/03 01:03:18;;;;;;;44.08;40.78;;;;;;;8.58;100.00;101056.19;5028791;28;20111;-84
2022/05/03 01:06:14;;;;;;;54.80;50.53;;;;;;;8.61;100.00;101053.97;5033138;28;20049;-85
2022/05/03 01:09:02;;;;;;;48.35;44.67;;;;;;;8.63;100.00;101045.88;5014807;28;20057;-84
2022/05/03 01:11:38;;;;;;;54.13;50.17;;;;;;;8.64;100.00;101040.38;5024600;28;20093;-85
2022/05/03 01:14:19;;;;;;;52.28;48.53;;;;;;;8.75;100.00;101044.38;5020685;28;20053;-84
2022/05/03 01:16:56;;;;;;;53.67;49.78;;;;;;;8.47;100.00;101036.28;5019286;28;20045;-84
2022/05/03 01:19:49;;;;;;;50.20;46.85;;;;;;;8.59;100.00;101047.22;5018407;28;20461;-85
2022/05/03 01:22:37;;;;;;;50.92;47.28;;;;;;;8.42;100.00;101043.97;5013232;28;20120;-85
2022/05/03 01:25:19;;;;;;;48.17;44.78;;;;;;;8.67;100.00;101050.59;5019006;28;20123;-85
2022/05/03 01:28:02;;;;;;;52.22;48.63;;;;;;;8.49;100.00;101039.56;5021104;28;20058;-84
2022/05/03 01:30:32;;;;;;;49.03;45.72;;;;;;;8.64;100.00;101044.84;5018163;28;20046;-83
2022/05/03 01:33:09;;;;;;;45.92;42.53;;;;;;;8.32;100.00;101038.06;5027937;28;20080;-84
2022/05/03 01:35:39;;;;;;;50.10;46.50;;;;;;;8.42;100.00;101034.19;5028588;28;20132;-83
2022/05/03 01:38:31;;;;;;;41.80;38.65;;;;;;;8.31;100.00;101047.03;5025382;28;20381;-85
2022/05/03 01:41:09;;;;;;;42.58;39.15;;;;;;;8.26;100.00;101029.06;5019636;28;20057;-84
2022/05/03 01:43:58;;;;;;;45.28;41.92;;;;;;;8.36;100.00;101044.66;5028001;28;20050;-85
2022/05/03 01:46:33;;;;;;;50.25;46.70;;;;;;;8.09;100.00;101040.84;5025091;28;20072;-86
2022/05/03 01:52:35;;;;;;;41.53;38.38;;;;;;;8.51;100.00;101044.69;5027057;28;20137;-85
2022/05/03 01:55:17;;;;;;;44.28;41.17;;;;;;;8.55;100.00;101040.66;4919284;29;20075;-83
2022/05/03 01:58:03;;;;;;;52.25;48.47;;;;;;;8.48;100.00;101037.94;5010439;28;20072;-85
2022/05/03 02:00:35;;;;;;;44.80;41.40;;;;;;;8.66;100.00;101040.19;5148511;22;20053;-82
2022/05/03 02:03:13;;;;;;;46.28;42.78;;;;;;;8.16;100.00;101039.09;5011868;28;20065;-82
2022/05/03 02:05:59;;;;;;;50.42;46.58;;;;;;;8.29;100.00;101030.50;5011040;28;20536;-82
2022/05/03 02:08:32;;;;;;;54.58;50.28;;;;;;;8.60;100.00;101028.50;5011540;28;20046;-82
2022/05/03 02:11:11;;;;;;;56.67;52.53;;;;;;;8.64;100.00;101021.03;5009985;28;20054;-82
2022/05/03 02:16:50;;;;;;;55.47;51.50;;;;;;;8.23;100.00;101030.25;5013451;28;20103;-83
2022/05/03 02:19:36;;;;;;;59.00;54.83;;;;;;;8.35;100.00;101027.13;5015802;28;20050;-82
2022/05/03 02:22:17;;;;;;;64.47;59.95;;;;;;;8.30;100.00;101027.69;5013784;28;20050;-82
2022/05/03 02:24:51;;;;;;;57.45;53.65;;;;;;;8.33;100.00;101027.31;5015316;28;20046;-83
2022/05/03 02:27:20;;;;;;;65.03;60.50;;;;;;;8.58;100.00;101019.13;5012718;28;20050;-82
2022/05/03 02:29:48;;;;;;;57.00;52.90;;;;;;;8.58;100.00;101016.47;5013595;28;20042;-82
2022/05/03 02:32:21;;;;;;;48.95;45.30;;;;;;;8.62;100.00;101015.91;5015076;28;20060;-82
2022/05/03 02:34:54;;;;;;;62.10;58.03;;;;;;;8.53;100.00;101014.34;5019129;28;20056;-83
2022/05/03 02:37:23;;;;;;;;;;;;;;;8.61;100.00;101011.63;5020787;28;20053;-83
2022/05/03 02:39:55;;;;;;;53.90;50.17;;;;;;;8.50;100.00;101027.97;5023000;28;19990;-82
2022/05/03 02:42:22;;;;;;;50.38;46.83;;;;;;;8.55;100.00;101028.25;5023259;28;20485;-83
2022/05/03 02:44:50;;;;;;;50.92;47.03;;;;;;;8.61;100.00;101032.78;5019321;28;20046;-82
2022/05/03 02:47:29;;;;;;;45.90;42.53;;;;;;;8.63;100.00;101024.69;5020397;28;20120;-82
2022/05/03 02:50:10;;;;;;;50.22;46.20;;;;;;;8.70;100.00;101022.91;5022351;28;20299;-82
2022/05/03 02:52:59;;;;;;;48.15;44.85;;;;;;;8.35;100.00;101021.84;5018882;28;20050;-83
2022/05/03 02:55:36;;;;;;;45.45;41.88;;;;;;;8.57;100.00;101022.78;5012993;28;20505;-82
2022/05/03 02:58:29;;;;;;;54.33;50.33;;;;;;;8.77;100.00;101028.28;5009467;28;20093;-83
2022/05/03 03:04:04;;;;;;;45.55;41.83;;;;;;;8.34;100.00;101023.66;5020069;28;20053;-82
2022/05/03 03:06:39;;;;;;;40.75;37.75;;;;;;;8.62;100.00;101026.50;5030905;28;20053;-83
2022/05/03 03:09:22;;;;;;;45.25;41.33;;;;;;;8.60;100.00;101030.34;5034211;28;20115;-83
2022/05/03 03:11:57;;;;;;;39.17;35.75;;;;;;;8.82;100.00;101032.03;5027660;28;20108;-84
2022/05/03 03:14:35;;;;;;;40.92;37.28;;;;;;;8.47;100.00;101025.69;5029090;28;20041;-83
2022/05/03 03:17:11;;;;;;;40.03;36.80;;;;;;;8.34;100.00;101036.09;5031728;28;20081;-83
2022/05/03 03:23:15;;;;;;;32.63;30.02;;;;;;;8.50;100.00;101027.97;5033892;28;20041;-84
2022/05/03 03:25:44;;;;;;;34.38;31.67;;;;;;;8.49;100.00;101031.63;5026679;28;20046;-84
2022/05/03 03:28:23;;;;;;;35.20;32.60;;;;;;;8.68;100.00;101032.88;5027403;28;20477;-84
2022/05/03 03:30:59;;;;;;;37.40;34.70;;;;;;;8.77;100.00;101031.75;5023124;28;20049;-84
2022/05/03 03:33:26;;;;;;;35.55;33.05;;;;;;;8.75;100.00;101039.09;5022237;28;20049;-84
2022/05/03 03:36:09;;;;;;;33.42;30.90;;;;;;;9.00;100.00;101039.56;5025385;28;20063;-84
2022/05/03 03:39:04;;;;;;;35.45;32.72;;;;;;;8.84;100.00;101037.97;5029583;28;20050;-84
2022/05/03 03:41:35;;;;;;;36.38;33.67;;;;;;;8.33;100.00;101042.38;5033954;28;20049;-84
2022/05/03 03:44:26;;;;;;;37.97;34.95;;;;;;;8.69;100.00;101043.28;5019827;28;20045;-84
2022/05/03 03:46:55;;;;;;;35.42;32.40;;;;;;;8.33;100.00;101043.22;5034254;28;20053;-84
2022/05/03 03:49:30;;;;;;;36.28;33.35;;;;;;;8.49;100.00;101052.81;5034905;28;20057;-84
2022/05/03 03:52:15;;;;;;;35.35;32.25;;;;;;;8.65;100.00;101051.78;5034420;28;20107;-84
2022/05/03 03:55:06;;;;;;;34.05;31.00;;;;;;;8.69;100.00;101050.41;5033929;28;20045;-84
2022/05/03 03:57:38;;;;;;;33.17;30.35;;;;;;;9.06;100.00;101057.34;5014958;28;20050;-84
2022/05/03 04:00:29;;;;;;;33.70;30.70;;;;;;;9.17;100.00;101054.22;5016091;28;20057;-85
2022/05/03 04:03:05;;;;;;;35.30;31.90;;;;;;;9.31;100.00;101064.94;5032847;28;20405;-85
2022/05/03 04:05:38;;;;;;;35.03;32.15;;;;;;;9.13;100.00;101055.59;5035097;28;20058;-85
2022/05/03 04:08:39;;;;;;;53.58;48.30;;;;;;;9.23;100.00;101067.72;5034970;28;20045;-85
2022/05/03 04:12:01;;;;;;;49.05;44.78;;;;;;;9.43;100.00;101063.44;5032276;28;20429;-84
2022/05/03 04:14:29;;;;;;;34.83;32.13;;;;;;;9.45;100.00;101069.38;5033147;28;20053;-85
2022/05/03 04:17:05;;;;;;;33.92;31.38;;;;;;;9.51;100.00;101076.56;5034980;28;20120;-84
2022/05/03 04:19:48;;;;;;;32.95;30.52;;;;;;;9.18;100.00;101074.41;5034939;28;20053;-85
2022/05/03 04:22:36;;;;;;;35.97;33.17;;;;;;;9.34;100.00;101077.81;5012444;28;20433;-85
2022/05/03 04:25:15;;;;;;;34.92;32.22;;;;;;;9.06;100.00;101073.25;5029203;28;20041;-86
2022/05/03 04:27:56;;;;;;;33.55;31.00;;;;;;;9.36;100.00;101078.47;5018675;28;20113;-85
2022/05/03 04:30:27;;;;;;;34.30;31.58;;;;;;;9.48;100.00;101079.59;5034400;28;20123;-86
2022/05/03 04:32:59;;;;;;;32.53;30.20;;;;;;;9.71;100.00;101076.72;5023305;28;20470;-86
2022/05/03 04:35:31;;;;;;;33.08;30.10;;;;;;;9.72;100.00;101078.38;5035384;28;20049;-86
2022/05/03 04:38:03;;;;;;;32.90;30.52;;;;;;;9.83;100.00;101077.03;5037199;28;20061;-85
2022/05/03 04:40:47;;;;;;;;;;;;;;;9.50;100.00;101071.44;5024081;28;20056;-85
2022/05/03 04:43:27;;;;;;;36.13;33.28;;;;;;;9.72;100.00;101077.56;5036695;28;19925;-84
2022/05/03 04:45:55;;;;;;;35.00;32.50;;;;;;;9.66;100.00;101075.69;5037389;28;20050;-84
2022/05/03 04:48:22;;;;;;;37.38;34.65;;;;;;;9.58;100.00;101076.63;5035777;28;20056;-84
2022/05/03 04:50:49;;;;;;;36.03;33.28;;;;;;;9.69;100.00;101081.41;5036270;28;20054;-84
2022/05/03 04:53:17;;;;;;;34.47;32.00;;;;;;;9.91;100.00;101081.38;5033700;28;20053;-84
2022/05/03 04:55:43;;;;;;;32.67;30.30;;;;;;;10.04;100.00;101079.63;5034934;28;20497;-84
2022/05/03 04:58:11;;;;;;;32.30;30.05;;;;;;;10.12;100.00;101084.00;5035008;28;20107;-84
2022/05/03 05:00:38;;;;;;;32.90;30.30;;;;;;;10.05;100.00;101077.84;5033995;28;20385;-84
2022/05/03 05:03:09;;;;;;;35.72;32.55;;;;;;;10.08;100.00;101088.06;5018695;28;20045;-85
2022/05/03 05:05:45;;;;;;;34.85;31.23;;;;;;;10.42;100.00;101075.84;5009605;28;20049;-85
2022/05/03 05:08:12;;;;;;;32.67;30.10;;;;;;;10.46;100.00;101082.38;5004320;28;20081;-85
2022/05/03 05:10:40;;;;;;;33.92;31.65;;;;;;;10.67;100.00;101078.81;5011429;28;20045;-86
2022/05/03 05:13:29;;;;;;;31.08;29.23;;;;;;;10.70;100.00;101081.91;5024639;28;20463;-86
2022/05/03 05:15:56;;;;;;;28.63;26.67;;;;;;;10.74;100.00;101077.00;5018470;28;20081;-85
2022/05/03 05:18:25;;;;;;;29.45;27.38;;;;;;;10.92;100.00;101079.97;5020738;28;20053;-86
2022/05/03 05:20:52;;;;;;;30.77;28.52;;;;;;;10.88;100.00;101084.00;5017065;28;20050;-85
2022/05/03 05:23:19;;;;;;;30.23;27.88;;;;;;;10.95;100.00;101081.38;5020493;28;20050;-86
2022/05/03 05:25:47;;;;;;;31.60;29.17;;;;;;;11.00;100.00;101086.91;5020448;28;20042;-86
2022/05/03 05:28:14;;;;;;;29.58;27.55;;;;;;;10.85;100.00;101080.94;5004467;28;20125;-86
2022/05/03 05:30:40;;;;;;;29.80;27.80;;;;;;;11.15;100.00;101081.44;5016005;28;20061;-87
2022/05/03 05:33:07;;;;;;;29.65;27.30;;;;;;;11.21;100.00;101089.44;5022833;28;20465;-87
2022/05/03 05:35:36;;;;;;;29.60;27.67;;;;;;;11.31;100.00;101082.91;5018513;28;20056;-86
2022/05/03 05:38:03;;;;;;;31.67;29.67;;;;;;;11.13;100.00;101086.94;5014055;28;20054;-86
2022/05/03 05:40:30;;;;;;;34.50;32.10;;;;;;;11.33;100.00;101081.69;5021926;28;20049;-86
2022/05/03 05:42:57;;;;;;;34.28;31.77;;;;;;;11.16;100.00;101086.53;5016250;28;20045;-86
2022/05/03 05:45:24;;;;;;;34.03;31.52;;;;;;;11.25;100.00;101089.84;5018229;28;20042;-86
2022/05/03 05:47:51;;;;;;;32.25;30.13;;;;;;;11.38;100.00;101089.06;5020818;28;20053;-86
2022/05/03 05:50:18;;;;;;;32.55;30.25;;;;;;;11.36;100.00;101086.59;5022956;28;20077;-85
2022/05/03 05:55:31;;;;;;;30.45;28.55;;;;;;;11.67;100.00;101107.31;5014954;28;20096;-86
2022/05/03 05:57:58;;;;;;;31.58;29.15;;;;;;;11.75;100.00;101100.16;5020567;28;20108;-87
2022/05/03 06:00:25;;;;;;;31.25;29.25;;;;;;;11.60;100.00;101101.16;5021485;28;20112;-87
2022/05/03 06:02:52;;;;;;;31.20;28.95;;;;;;;11.62;100.00;101100.97;4998450;28;20112;-87
2022/05/03 06:05:19;;;;;;;32.00;29.55;;;;;;;11.91;100.00;101105.91;4993895;28;20387;-87
2022/05/03 06:07:47;;;;;;;32.25;30.02;;;;;;;12.00;100.00;101101.19;4997457;28;20051;-86
2022/05/03 06:10:14;;;;;;;31.30;29.20;;;;;;;11.89;100.00;101109.78;5005030;28;20050;-88
2022/05/03 06:12:41;;;;;;;33.10;30.90;;;;;;;11.94;100.00;101117.19;4992204;28;20053;-86
2022/05/03 06:15:09;;;;;;;31.17;29.08;;;;;;;12.04;100.00;101115.75;4991456;28;20395;-87
2022/05/03 06:17:35;;;;;;;30.98;28.95;;;;;;;11.99;100.00;101110.22;4987810;28;20113;-87
2022/05/03 06:20:03;;;;;;;31.40;29.23;;;;;;;11.90;100.00;101111.47;4996558;28;20120;-87
2022/05/03 06:22:29;;;;;;;30.13;28.10;;;;;;;12.00;100.00;101113.69;4992729;28;20045;-87
2022/05/03 06:24:58;;;;;;;30.95;28.95;;;;;;;12.20;100.00;101111.03;4994908;28;20046;-86
2022/05/03 06:27:24;;;;;;;31.25;29.25;;;;;;;12.50;100.00;101109.53;5001835;28;20057;-87
2022/05/03 06:29:51;;;;;;;31.10;28.85;;;;;;;12.36;100.00;101103.41;4992270;28;20057;-87
2022/05/03 06:32:18;;;;;;;29.30;27.50;;;;;;;12.47;100.00;101117.94;4997842;28;20529;-87
2022/05/03 06:34:45;;;;;;;28.80;27.08;;;;;;;12.54;100.00;101115.25;5001111;28;20053;-86
2022/05/03 06:37:17;;;;;;;30.88;28.83;;;;;;;12.37;100.00;101114.88;5003942;28;20050;-86
2022/05/03 06:39:44;;;;;;;30.05;28.15;;;;;;;12.29;100.00;101117.78;4992992;28;20053;-88
2022/05/03 06:42:12;;;;;;;30.48;28.42;;;;;;;12.67;100.00;101111.72;5000110;28;20050;-87
2022/05/03 06:44:39;;;;;;;30.02;28.02;;;;;;;12.50;100.00;101108.72;5004177;28;20459;-86
2022/05/03 06:47:06;;;;;;;31.42;29.42;;;;;;;12.54;100.00;101118.75;4997910;28;20054;-86
2022/05/03 06:49:33;;;;;;;30.98;28.95;;;;;;;12.59;100.00;101118.94;4987294;28;20049;-86
2022/05/03 06:52:00;;;;;;;31.50;29.50;;;;;;;12.21;100.00;101116.13;4990963;28;20054;-86
2022/05/03 06:54:27;;;;;;;32.60;30.33;;;;;;;12.32;100.00;101120.84;4996966;28;20050;-86
2022/05/03 06:56:53;;;;;;;30.42;28.20;;;;;;;12.56;100.00;101119.34;4997073;28;20053;-86
2022/05/03 06:59:22;;;;;;;30.77;28.92;;;;;;;12.63;100.00;101122.00;4992559;28;20062;-87
2022/05/03 07:01:48;;;;;;;31.85;29.45;;;;;;;12.55;100.00;101127.53;5000305;28;20054;-86
2022/05/03 07:04:15;;;;;;;31.80;29.70;;;;;;;12.73;100.00;101124.22;5003966;28;20054;-87
2022/05/03 07:06:43;;;;;;;32.45;30.20;;;;;;;12.88;100.00;101122.13;4998767;28;20477;-86
2022/05/03 07:09:10;;;;;;;31.85;29.55;;;;;;;12.92;100.00;101123.34;5001761;28;20057;-86
2022/05/03 07:11:37;;;;;;;30.30;28.55;;;;;;;12.93;100.00;101116.97;4999363;28;20046;-86
2022/05/03 07:14:04;;;;;;;30.20;28.38;;;;;;;12.88;100.00;101121.28;4989858;28;20046;-87
2022/05/03 07:16:33;;;;;;;32.28;29.85;;;;;;;13.05;100.00;101119.78;4995961;28;20534;-86
2022/05/03 07:24:29;;;;;;;32.28;30.27;;;;;;;13.31;100.00;101118.84;4997642;28;20064;-86
2022/05/03 07:26:56;;;;;;;34.25;31.13;;;;;;;13.10;100.00;101117.31;4996794;28;20065;-85
2022/05/03 07:29:23;;;;;;;29.98;28.10;;;;;;;13.15;100.00;101119.34;4979277;28;20043;-86
2022/05/03 07:31:51;;;;;;;30.30;27.98;;;;;;;13.43;100.00;101125.16;4998529;28;20054;-86
2022/05/03 07:34:18;;;;;;;30.02;27.95;;;;;;;13.37;100.00;101119.84;5003246;28;20426;-86
2022/05/03 07:36:45;;;;;;;29.25;27.15;;;;;;;13.12;100.00;101120.56;4999081;28;20108;-86
2022/05/03 07:39:11;;;;;;;28.33;26.48;;;;;;;13.42;100.00;101128.03;5000199;28;20486;-86
2022/05/03 07:41:38;;;;;;;30.15;27.60;;;;;;;13.65;100.00;101135.50;4993848;28;20117;-86
2022/05/03 07:44:05;;;;;;;29.98;28.15;;;;;;;13.72;100.00;101128.25;5002691;28;20046;-86
2022/05/03 07:46:32;;;;;;;29.58;27.48;;;;;;;13.68;100.00;101133.22;4996977;28;20054;-86
2022/05/03 07:49:00;;;;;;;29.40;27.38;;;;;;;13.50;100.00;101133.13;4994223;28;20050;-86
2022/05/03 07:51:27;;;;;;;30.65;28.63;;;;;;;14.18;100.00;101140.41;5005655;28;20073;-86
2022/05/03 07:53:54;;;;;;;30.02;27.92;;;;;;;14.33;100.00;101140.88;4991161;28;20059;-85
2022/05/03 07:56:21;;;;;;;31.80;29.30;;;;;;;14.75;100.00;101143.78;4998215;28;20120;-85
2022/05/03 07:58:48;;;;;;;29.05;27.15;;;;;;;14.55;100.00;101148.50;5001221;28;20060;-86
2022/05/03 08:01:15;;;;;;;29.95;27.83;;;;;;;14.26;100.00;101142.81;5000535;28;20454;-86
2022/05/03 08:03:42;;;;;;;29.70;27.48;;;;;;;14.59;100.00;101147.84;4995273;28;20124;-86
2022/05/03 08:06:10;;;;;;;30.52;28.20;;;;;;;14.49;100.00;101149.38;4994985;28;20390;-87
2022/05/03 08:08:37;;;;;;;32.42;30.08;;;;;;;14.83;100.00;101142.66;4994212;28;20054;-87
2022/05/03 08:11:04;;;;;;;30.52;28.40;;;;;;;15.21;100.00;101136.22;4994626;28;20050;-86
2022/05/03 08:13:31;;;;;;;29.95;28.15;;;;;;;14.69;100.00;101146.53;4995499;28;20088;-85
2022/05/03 08:15:58;;;;;;;30.92;28.67;;;;;;;14.66;100.00;101140.56;4995313;28;20054;-86
2022/05/03 08:18:25;;;;;;;31.23;28.35;;;;;;;15.08;100.00;101135.34;4995529;28;20478;-87
2022/05/03 08:20:53;;;;;;;31.38;29.23;;;;;;;15.07;100.00;101135.59;4994406;28;20054;-86
2022/05/03 08:23:21;;;;;;;32.03;29.75;;;;;;;15.60;100.00;101142.88;4994788;28;20077;-87
2022/05/03 08:25:48;;;;;;;32.15;29.70;;;;;;;15.64;100.00;101132.50;4994783;28;20490;-86
2022/05/03 08:28:15;;;;;;;30.40;28.40;;;;;;;15.65;100.00;101129.63;4995110;28;20082;-87
2022/05/03 08:30:42;;;;;;;30.10;28.00;;;;;;;15.57;100.00;101144.13;4994630;28;20046;-87
2022/05/03 08:33:09;;;;;;;30.73;28.90;;;;;;;15.86;100.00;101148.91;4995694;28;20050;-87
2022/05/03 08:35:36;;;;;;;30.88;28.77;;;;;;;16.03;100.00;101139.13;4994496;28;20057;-87
2022/05/03 08:43:32;;;;;;;28.05;26.35;;;;;;;15.66;100.00;101151.84;4999021;28;20057;-87
2022/05/03 08:46:01;;;;;;;29.35;27.65;;;;;;;15.90;100.00;101137.50;4999408;28;20047;-86
2022/05/03 08:48:31;;;;;;;28.55;26.95;;;;;;;15.04;100.00;101133.38;4998729;28;20054;-87
2022/05/03 08:51:00;;;;;;;29.42;27.70;;;;;;;15.41;100.00;101136.75;4998765;28;20109;-87
2022/05/03 08:53:29;;;;;;;30.00;28.10;;;;;;;15.01;100.00;101129.28;4995734;28;20472;-86
2022/05/03 08:55:57;;;;;;;28.98;27.13;;;;;;;15.40;100.00;101134.31;4997759;28;20050;-86
2022/05/03 08:58:24;;;;;;;27.70;26.02;;;;;;;15.19;100.00;101139.13;4996307;28;20497;-86
2022/05/03 09:00:51;;;;;;;28.00;26.30;;;;;;;15.12;100.00;101139.19;4999208;28;20053;-85
2022/05/03 09:03:20;;;;;;;27.88;26.15;;;;;;;14.78;100.00;101135.31;4999156;28;20057;-87
2022/05/03 09:05:47;;;;;;;27.50;26.00;;;;;;;15.19;100.00;101132.94;4997673;28;20047;-87
2022/05/03 09:08:21;;;;;;;28.45;26.77;;;;;;;15.02;100.00;101130.91;4996819;28;20062;-86
2022/05/03 09:10:48;;;;;;;28.05;26.27;;;;;;;14.99;100.00;101142.03;4996132;28;20434;-85
2022/05/03 09:13:18;;;;;;;28.98;27.08;;;;;;;15.38;100.00;101139.91;4997913;28;20054;-87
2022/05/03 09:15:47;;;;;;;27.58;25.75;;;;;;;15.40;100.00;101134.31;4998438;28;20074;-87
2022/05/03 09:18:22;;;;;;;27.00;25.50;;;;;;;15.64;100.00;101130.66;4998264;28;20502;-86
2022/05/03 09:23:48;;;;;;;27.73;25.95;;;;;;;15.67;100.00;101134.72;4997173;28;20057;-85
2022/05/03 09:26:16;;;;;;;27.13;25.55;;;;;;;15.78;100.00;101133.97;4994061;28;20368;-87
2022/05/03 09:28:49;;;;;;;27.17;25.52;;;;;;;16.07;100.00;101134.13;4998236;28;20549;-86
2022/05/03 09:31:28;;;;;;;27.75;26.05;;;;;;;16.11;100.00;101132.63;4997302;28;20054;-87
2022/05/03 09:34:00;;;;;;;28.33;26.55;;;;;;;15.49;100.00;101130.25;4995746;28;20128;-86
2022/05/03 09:36:27;;;;;;;28.73;26.90;;;;;;;15.65;100.00;101134.16;4997737;28;20145;-86
2022/05/03 09:38:56;;;;;;;28.80;26.73;;;;;;;16.21;100.00;101135.53;4997750;28;20046;-86
2022/05/03 09:41:25;;;;;;;28.65;26.95;;;;;;;15.75;100.00;101131.75;4997666;28;20058;-86
2022/05/03 09:44:08;;;;;;;28.55;26.73;;;;;;;15.98;100.00;101128.31;4997018;28;20042;-86
2022/05/03 09:46:50;;;;;;;29.42;27.30;;;;;;;15.79;100.00;101123.06;4995414;28;20046;-86
2022/05/03 09:49:19;;;;;;;29.08;26.98;;;;;;;15.97;100.00;101126.66;4997499;28;20124;-85
2022/05/03 09:51:46;;;;;;;29.65;27.83;;;;;;;15.50;100.00;101130.03;4999490;28;20112;-86
2022/05/03 09:54:14;;;;;;;28.70;26.73;;;;;;;15.80;100.00;101121.19;4998406;28;20082;-85
2022/05/03 09:56:44;;;;;;;29.20;27.20;;;;;;;16.07;100.00;101120.72;4998771;28;20069;-85
2022/05/03 09:59:14;;;;;;;27.33;25.45;;;;;;;15.87;100.00;101121.88;4998990;28;20062;-85
2022/05/03 10:01:42;;;;;;;27.10;25.50;;;;;;;15.71;100.00;101118.03;4999437;28;20083;-86
2022/05/03 10:04:09;;;;;;;26.58;25.10;;;;;;;15.88;100.00;101123.50;5006120;28;20043;-86
2022/05/03 10:06:37;;;;;;;27.73;25.92;;;;;;;15.39;100.00;101112.09;5007156;28;20479;-85
2022/05/03 10:09:04;;;;;;;27.65;26.15;;;;;;;15.45;100.00;101123.75;5002174;28;20049;-86
2022/05/03 10:11:34;;;;;;;27.23;25.83;;;;;;;15.38;100.00;101112.31;5008921;28;20159;-86
2022/05/03 10:14:01;;;;;;;27.92;26.30;;;;;;;15.53;100.00;101113.53;4992266;28;20057;-85
2022/05/03 10:22:05;;;;;;;28.58;27.08;;;;;;;16.18;100.00;101110.00;4992995;28;20561;-87
2022/05/03 10:24:33;;;;;;;29.58;27.67;;;;;;;16.40;100.00;101115.63;4993948;28;20054;-87
2022/05/03 10:27:02;;;;;;;28.90;27.13;;;;;;;16.25;100.00;101113.41;5003398;28;20053;-87
2022/05/03 10:29:33;;;;;;;27.52;26.02;;;;;;;16.51;100.00;101118.50;4993396;28;20490;-86
2022/05/03 10:32:03;;;;;;;29.02;27.42;;;;;;;16.20;100.00;101107.91;5002801;28;20459;-86
2022/05/03 10:34:59;;;;;;;29.15;27.45;;;;;;;16.33;100.00;101108.72;5004462;28;20054;-86
2022/05/03 10:38:04;;;;;;;29.25;27.67;;;;;;;16.85;100.00;101108.78;4985296;28;20057;-86
2022/05/03 10:40:34;;;;;;;29.30;27.80;;;;;;;16.91;100.00;101100.63;4979410;28;20601;-86
2022/05/03 10:43:11;;;;;;;30.00;28.23;;;;;;;16.98;100.00;101099.66;4996734;28;20046;-87
2022/05/03 10:45:49;;;;;;;29.85;28.25;;;;;;;16.70;100.00;101098.50;4998156;28;20046;-87
2022/05/03 10:48:26;;;;;;;28.38;26.88;;;;;;;17.17;100.00;101090.34;5001317;28;20053;-85
2022/05/03 10:50:54;;;;;;;29.33;27.73;;;;;;;17.21;100.00;101088.81;4997231;28;20471;-85
2022/05/03 10:53:32;;;;;;;31.02;29.05;;;;;;;16.75;100.00;101092.47;4992286;28;20491;-86
2022/05/03 10:56:18;;;;;;;31.15;29.27;;;;;;;16.78;100.00;101092.00;4992638;28;20499;-87
2022/05/03 10:59:12;;;;;;;31.10;29.40;;;;;;;16.55;100.00;101087.47;4999259;28;20433;-86
2022/05/03 11:02:09;;;;;;;30.58;29.02;;;;;;;16.75;100.00;101087.91;4991020;28;20509;-86
2022/05/03 11:05:22;;;;;;;30.45;28.75;;;;;;;16.72;100.00;101089.19;4986375;28;20054;-87
2022/05/03 11:08:15;;;;;;;29.98;28.17;;;;;;;16.77;100.00;101090.41;4973756;28;20050;-85
2022/05/03 11:10:43;;;;;;;31.88;29.95;;;;;;;17.09;100.00;101082.66;4986222;28;20132;-86
2022/05/03 11:13:38;;;;;;;29.83;28.27;;;;;;;17.11;100.00;101080.56;4997417;28;20057;-87
2022/05/03 11:16:34;;;;;;;32.47;30.55;;;;;;;16.94;100.00;101081.34;4993158;28;20050;-86
2022/05/03 11:19:11;;;;;;;29.13;27.63;;;;;;;16.99;100.00;101075.25;4984717;28;20058;-87
2022/05/03 11:21:40;;;;;;;30.65;28.95;;;;;;;17.10;100.00;101081.63;4993332;28;20042;-87
2022/05/03 11:24:17;;;;;;;30.80;29.10;;;;;;;16.91;99.53;101075.63;4994535;28;20053;-86
2022/05/03 11:26:45;;;;;;;30.92;29.30;;;;;;;17.01;100.00;101066.97;4991541;28;20415;-85
2022/05/03 11:29:14;;;;;;;30.83;29.02;;;;;;;17.05;99.26;101065.44;4995288;28;20505;-86
2022/05/03 11:31:47;;;;;;;30.85;29.25;;;;;;;16.98;97.39;101073.63;4995606;28;20050;-85
2022/05/03 11:34:15;;;;;;;33.20;31.35;;;;;;;17.02;100.00;101064.03;4995420;28;20054;-86
2022/05/03 11:36:43;;;;;;;31.70;30.00;;;;;;;17.24;99.37;101071.41;4994913;28;20467;-87
2022/05/03 11:39:11;;;;;;;31.30;29.60;;;;;;;17.15;100.00;101068.28;4996054;28;20068;-86
2022/05/03 11:41:40;;;;;;;30.60;28.58;;;;;;;17.45;99.32;101075.25;4995406;28;20066;-87
2022/05/03 11:44:07;;;;;;;31.30;29.38;;;;;;;17.15;99.00;101062.94;4994556;28;20501;-85
2022/05/03 11:46:36;;;;;;;34.17;31.77;;;;;;;17.03;96.72;101056.81;4995225;28;20061;-86
2022/05/03 11:49:06;;;;;;;30.13;28.40;;;;;;;17.04;98.67;101059.25;4993424;28;20046;-85
2022/05/03 11:57:13;;;;;;;31.25;29.17;;;;;;;17.34;100.00;101061.66;4994564;28;20144;-86
2022/05/03 11:59:40;;;;;;;32.87;31.10;;;;;;;17.17;100.00;101061.63;4995424;28;20046;-86
2022/05/03 12:02:16;;;;;;;33.28;31.38;;;;;;;17.43;97.95;101059.41;4991993;28;20054;-86
2022/05/03 12:05:02;;;;;;;30.80;29.10;;;;;;;17.23;95.82;101054.50;4994756;28;20038;-85
2022/05/03 12:07:29;;;;;;;32.78;30.88;;;;;;;16.68;94.56;101055.84;4994609;28;20116;-85
2022/05/03 12:09:57;;;;;;;34.15;31.95;;;;;;;16.64;92.87;101060.06;4994869;28;20047;-86
2022/05/03 12:15:15;;;;;;;33.97;31.70;;;;;;;16.69;99.83;101048.63;4994984;28;20140;-86
2022/05/03 12:17:57;;;;;;;33.17;31.38;;;;;;;17.12;99.78;101055.34;4995586;28;20108;-85